Time,TemperatureF,DewpointF,PressureIn,WindDirection,WindDirectionDegrees,WindSpeedMPH,WindSpeedGustMPH,Humidity,HourlyPrecipIn,Conditions,Clouds,dailyrainin,SoftwareType,DateUTC
2013-11-11 00:01:00,34.2,30.2,30.23,West,266,0.0,0.0,85,0.00,RA,,0.00,WeatherDisplay:10.37,2013-11-11 05:01:00,
2013-11-11 00:02:00,34.2,30.2,30.23,West,266,0.0,0.0,85,0.00,RA,,0.00,WeatherDisplay:10.37,2013-11-11 05:02:00,
2013-11-11 00:07:00,34.4,30.4,30.23,West,266,0.0,0.0,85,0.00,RA,,0.00,WeatherDisplay:10.37,2013-11-11 05:07:00,
2013-11-11 00:12:00,34.6,30.6,30.24,West,266,0.1,1.2,85,0.00,CLR,,0.00,WeatherDisplay:10.37,2013-11-11 05:12:00,
2013-11-11 00:17:00,34.8,30.8,30.24,West,266,0.0,1.2,85,0.00,CLR,,0.00,WeatherDisplay:10.37,2013-11-11 05:17:00,
2013-11-11 00:22:00,34.9,30.8,30.23,West,266,0.0,0.0,85,0.00,CLR,,0.00,WeatherDisplay:10.37,2013-11-11 05:22:00,
2013-11-11 00:27:00,35.0,30.9,30.23,West,266,0.0,0.0,85,0.00,CLR,,0.00,WeatherDisplay:10.37,2013-11-11 05:27:00,
2013-11-11 00:32:00,35.2,30.9,30.22,West,266,0.1,1.0,84,0.00,CLR,,0.00,WeatherDisplay:10.37,2013-11-11 05:32:00,
2013-11-11 00:37:00,35.4,31.0,30.22,West,266,0.0,0.0,84,0.00,CLR,,0.00,WeatherDisplay:10.37,2013-11-11 05:37:00,
2013-11-11 00:42:00,35.6,31.2,30.22,West,266,0.0,1.2,84,0.00,CLR,,0.00,WeatherDisplay:10.37,2013-11-11 05:42:00,
2013-11-11 00:47:00,35.8,31.4,30.22,West,266,0.0,2.3,84,0.00,CLR,,0.00,WeatherDisplay:10.37,2013-11-11 05:47:00,
2013-11-11 00:52:00,36.0,31.6,30.22,West,266,2.3,3.5,84,0.00,CLR,,0.00,WeatherDisplay:10.37,2013-11-11 05:52:00,
2013-11-11 00:57:00,36.2,31.5,30.22,West,266,0.0,0.0,83,0.00,CLR,,0.00,WeatherDisplay:10.37,2013-11-11 05:57:00,
2013-11-11 01:02:00,36.3,31.6,30.21,West,266,0.0,0.0,83,0.00,CLR,,0.00,WeatherDisplay:10.37,2013-11-11 06:02:00,
2013-11-11 01:07:00,36.3,31.6,30.21,West,266,0.0,0.0,83,0.00,CLR,,0.00,WeatherDisplay:10.37,2013-11-11 06:07:00,
2013-11-11 01:12:00,36.4,31.7,30.21,West,266,0.0,0.0,83,0.00,CLR,,0.00,WeatherDisplay:10.37,2013-11-11 06:12:00,
2013-11-11 01:17:00,36.4,31.7,30.22,West,266,0.0,0.0,83,0.00,CLR,,0.00,WeatherDisplay:10.37,2013-11-11 06:17:00,
2013-11-11 01:22:00,36.4,31.7,30.22,West,266,0.0,0.0,83,0.00,CLR,,0.00,WeatherDisplay:10.37,2013-11-11 06:22:00,
2013-11-11 01:27:00,36.4,31.7,30.21,West,266,0.0,0.0,83,0.00,CLR,,0.00,WeatherDisplay:10.37,2013-11-11 06:27:00,
2013-11-11 01:32:00,36.6,31.9,30.21,West,266,0.0,0.0,83,0.00,CLR,,0.00,WeatherDisplay:10.37,2013-11-11 06:32:00,
2013-11-11 01:37:00,36.6,31.9,30.21,West,266,0.0,0.0,83,0.00,CLR,,0.00,WeatherDisplay:10.37,2013-11-11 06:37:00,
2013-11-11 01:42:00,36.6,31.9,30.21,West,266,0.0,0.0,83,0.00,CLR,,0.00,WeatherDisplay:10.37,2013-11-11 06:42:00,
2013-11-11 01:47:00,36.7,32.0,30.20,West,266,0.0,0.0,83,0.00,CLR,,0.00,WeatherDisplay:10.37,2013-11-11 06:47:00,
2013-11-11 01:52:00,36.9,32.2,30.20,West,266,0.2,1.2,83,0.00,CLR,,0.00,WeatherDisplay:10.37,2013-11-11 06:52:00,
2013-11-11 01:57:00,37.0,32.3,30.20,West,266,0.0,0.0,83,0.00,CLR,,0.00,WeatherDisplay:10.37,2013-11-11 06:57:00,
2013-11-11 02:02:00,37.1,32.4,30.20,West,266,0.0,0.0,83,0.00,CLR,,0.00,WeatherDisplay:10.37,2013-11-11 07:02:00,
2013-11-11 02:07:00,37.1,32.4,30.20,West,266,0.0,0.0,83,0.00,CLR,,0.00,WeatherDisplay:10.37,2013-11-11 07:07:00,
2013-11-11 02:12:00,37.1,32.1,30.20,West,266,0.0,0.0,82,0.00,CLR,,0.00,WeatherDisplay:10.37,2013-11-11 07:12:00,
2013-11-11 02:17:00,37.2,32.5,30.20,West,266,0.1,1.2,83,0.00,CLR,,0.00,WeatherDisplay:10.37,2013-11-11 07:17:00,
2013-11-11 02:22:00,37.3,32.6,30.20,West,266,0.0,0.0,83,0.00,CLR,,0.00,WeatherDisplay:10.37,2013-11-11 07:22:00,
2013-11-11 02:27:00,37.3,32.6,30.19,West,266,0.0,0.0,83,0.00,CLR,,0.00,WeatherDisplay:10.37,2013-11-11 07:27:00,
2013-11-11 02:32:00,37.3,32.6,30.19,West,266,0.0,3.5,83,0.00,CLR,,0.00,WeatherDisplay:10.37,2013-11-11 07:32:00,
2013-11-11 02:37:00,37.3,32.6,30.19,West,266,0.2,4.6,83,0.00,CLR,,0.00,WeatherDisplay:10.37,2013-11-11 07:37:00,
2013-11-11 02:42:00,37.3,32.3,30.19,West,265,0.6,4.6,82,0.00,CLR,,0.00,WeatherDisplay:10.37,2013-11-11 07:42:00,
2013-11-11 02:47:00,37.4,32.4,30.19,West,265,0.0,2.3,82,0.00,CLR,,0.00,WeatherDisplay:10.37,2013-11-11 07:47:00,
2013-11-11 02:52:00,37.4,32.4,30.18,West,265,0.1,1.2,82,0.00,CLR,,0.00,WeatherDisplay:10.37,2013-11-11 07:52:00,
2013-11-11 02:57:00,37.4,32.4,30.17,WSW,247,0.8,4.6,82,0.00,CLR,,0.00,WeatherDisplay:10.37,2013-11-11 07:57:00,
2013-11-11 03:02:00,37.5,32.5,30.17,WSW,245,0.3,3.5,82,0.00,CLR,,0.00,WeatherDisplay:10.37,2013-11-11 08:02:00,
2013-11-11 03:07:00,37.5,32.5,30.17,WSW,243,0.1,3.5,82,0.00,CLR,,0.00,WeatherDisplay:10.37,2013-11-11 08:07:00,
2013-11-11 03:12:00,37.5,32.5,30.17,WSW,243,0.7,2.3,82,0.00,CLR,,0.00,WeatherDisplay:10.37,2013-11-11 08:12:00,
2013-11-11 03:17:00,37.5,32.5,30.17,SW,232,0.0,4.6,82,0.00,CLR,,0.00,WeatherDisplay:10.37,2013-11-11 08:17:00,
2013-11-11 03:22:00,37.5,32.5,30.16,SW,225,0.5,2.3,82,0.00,CLR,,0.00,WeatherDisplay:10.37,2013-11-11 08:22:00,
2013-11-11 03:27:00,37.6,32.6,30.16,SW,225,0.8,3.5,82,0.00,CLR,,0.00,WeatherDisplay:10.37,2013-11-11 08:27:00,
2013-11-11 03:32:00,37.7,32.7,30.16,SW,224,1.0,3.5,82,0.00,CLR,,0.00,WeatherDisplay:10.37,2013-11-11 08:32:00,
2013-11-11 03:37:00,37.7,32.7,30.16,SW,224,0.4,2.3,82,0.00,CLR,,0.00,WeatherDisplay:10.37,2013-11-11 08:37:00,
2013-11-11 03:42:00,37.8,32.8,30.15,SW,221,1.6,3.5,82,0.00,CLR,,0.00,WeatherDisplay:10.37,2013-11-11 08:42:00,
2013-11-11 03:47:00,38.0,33.0,30.16,SW,220,2.4,5.8,82,0.00,CLR,,0.00,WeatherDisplay:10.37,2013-11-11 08:47:00,
2013-11-11 03:52:00,38.3,33.0,30.16,SW,223,1.4,6.9,81,0.00,CLR,,0.00,WeatherDisplay:10.37,2013-11-11 08:52:00,
2013-11-11 03:57:00,38.7,33.4,30.16,SW,226,5.6,10.4,81,0.00,CLR,,0.00,WeatherDisplay:10.37,2013-11-11 08:57:00,
2013-11-11 04:02:00,38.9,33.3,30.15,WSW,247,5.2,9.2,80,0.00,CLR,,0.00,WeatherDisplay:10.37,2013-11-11 09:02:00,
2013-11-11 04:07:00,39.1,33.1,30.15,WSW,242,3.3,5.0,79,0.00,CLR,,0.00,WeatherDisplay:10.37,2013-11-11 09:07:00,
2013-11-11 04:12:00,39.2,33.2,30.15,WSW,238,4.3,8.1,79,0.00,CLR,,0.00,WeatherDisplay:10.37,2013-11-11 09:12:00,
2013-11-11 04:17:00,39.2,33.2,30.14,SSW,209,1.7,11.5,79,0.00,CLR,,0.00,WeatherDisplay:10.37,2013-11-11 09:17:00,
2013-11-11 04:22:00,39.3,33.3,30.14,SW,219,3.1,5.8,79,0.00,CLR,,0.00,WeatherDisplay:10.37,2013-11-11 09:22:00,
2013-11-11 04:27:00,39.3,33.0,30.13,SW,223,3.1,6.9,78,0.00,CLR,,0.00,WeatherDisplay:10.37,2013-11-11 09:27:00,
2013-11-11 04:32:00,39.3,33.0,30.13,SW,221,4.2,6.9,78,0.00,CLR,,0.00,WeatherDisplay:10.37,2013-11-11 09:32:00,
2013-11-11 04:37:00,39.3,33.3,30.13,SW,217,3.8,8.1,79,0.00,CLR,,0.00,WeatherDisplay:10.37,2013-11-11 09:37:00,
2013-11-11 04:42:00,39.3,33.0,30.13,SW,217,2.0,6.9,78,0.00,CLR,,0.00,WeatherDisplay:10.37,2013-11-11 09:42:00,
2013-11-11 04:47:00,39.2,33.2,30.13,SW,214,1.9,4.6,79,0.00,CLR,,0.00,WeatherDisplay:10.37,2013-11-11 09:47:00,
2013-11-11 04:52:00,39.2,33.2,30.13,SW,219,4.3,9.0,79,0.00,CLR,,0.00,WeatherDisplay:10.37,2013-11-11 09:52:00,
2013-11-11 04:57:00,39.2,33.2,30.12,SW,216,1.5,4.6,79,0.00,CLR,,0.00,WeatherDisplay:10.37,2013-11-11 09:57:00,
2013-11-11 05:02:00,39.2,33.2,30.12,SW,217,0.0,1.2,79,0.00,CLR,,0.00,WeatherDisplay:10.37,2013-11-11 10:02:00,
2013-11-11 05:07:00,39.2,33.2,30.12,SSW,213,4.5,9.2,79,0.00,CLR,,0.00,WeatherDisplay:10.37,2013-11-11 10:07:00,
2013-11-11 05:12:00,39.3,33.3,30.11,SSW,192,6.2,13.0,79,0.00,CLR,,0.00,WeatherDisplay:10.37,2013-11-11 10:12:00,
2013-11-11 05:17:00,39.3,33.3,30.12,SW,232,1.4,9.2,79,0.00,CLR,,0.00,WeatherDisplay:10.37,2013-11-11 10:17:00,
2013-11-11 05:22:00,39.4,33.4,30.12,SW,221,3.3,9.2,79,0.00,CLR,,0.00,WeatherDisplay:10.37,2013-11-11 10:22:00,
2013-11-11 05:27:00,39.5,33.5,30.13,SW,217,2.4,5.8,79,0.00,CLR,,0.00,WeatherDisplay:10.37,2013-11-11 10:27:00,
2013-11-11 05:32:00,39.5,33.5,30.12,SW,216,5.2,8.1,79,0.00,CLR,,0.00,WeatherDisplay:10.37,2013-11-11 10:32:00,
2013-11-11 05:37:00,39.6,33.6,30.11,SW,223,2.3,6.9,79,0.00,CLR,,0.00,WeatherDisplay:10.37,2013-11-11 10:37:00,
2013-11-11 05:42:00,39.9,33.6,30.11,SW,226,5.4,8.0,78,0.00,CLR,,0.00,WeatherDisplay:10.37,2013-11-11 10:42:00,
2013-11-11 05:47:00,40.1,33.5,30.11,SW,227,4.1,9.2,77,0.00,CLR,,0.00,WeatherDisplay:10.37,2013-11-11 10:47:00,
2013-11-11 05:52:00,40.3,33.7,30.11,SW,227,3.8,9.2,77,0.00,CLR,,0.00,WeatherDisplay:10.37,2013-11-11 10:52:00,
2013-11-11 05:57:00,40.4,33.8,30.11,SW,223,4.1,6.9,77,0.00,CLR,,0.00,WeatherDisplay:10.37,2013-11-11 10:57:00,
2013-11-11 06:02:00,40.5,33.5,30.11,WSW,245,2.6,5.8,76,0.00,CLR,,0.00,WeatherDisplay:10.37,2013-11-11 11:02:00,
2013-11-11 06:07:00,40.6,33.6,30.10,SW,225,6.6,11.5,76,0.00,CLR,,0.00,WeatherDisplay:10.37,2013-11-11 11:07:00,
2013-11-11 06:12:00,40.7,33.7,30.09,SW,235,0.2,10.4,76,0.00,CLR,,0.00,WeatherDisplay:10.37,2013-11-11 11:12:00,
2013-11-11 06:17:00,40.7,33.7,30.10,WSW,252,4.4,10.4,76,0.00,CLR,,0.00,WeatherDisplay:10.37,2013-11-11 11:17:00,
2013-11-11 06:22:00,40.8,33.8,30.09,SW,234,3.5,5.0,76,0.00,CLR,,0.00,WeatherDisplay:10.37,2013-11-11 11:22:00,
2013-11-11 06:27:00,40.8,33.8,30.09,SW,227,6.7,9.2,76,0.00,CLR,,0.00,WeatherDisplay:10.37,2013-11-11 11:27:00,
2013-11-11 06:32:00,40.8,33.5,30.09,SW,235,2.2,5.8,75,0.00,CLR,,0.00,WeatherDisplay:10.37,2013-11-11 11:32:00,
2013-11-11 06:37:00,40.8,33.5,30.09,SW,236,4.3,9.0,75,0.00,CLR,,0.00,WeatherDisplay:10.37,2013-11-11 11:37:00,
2013-11-11 06:42:00,40.9,33.6,30.08,West,262,1.8,6.9,75,0.00,CLR,,0.00,WeatherDisplay:10.37,2013-11-11 11:42:00,
2013-11-11 06:47:00,40.9,33.9,30.08,WSW,244,3.8,11.0,76,0.00,CLR,,0.00,WeatherDisplay:10.37,2013-11-11 11:47:00,
2013-11-11 06:52:00,40.8,33.8,30.08,WSW,250,5.8,10.4,76,0.00,CLR,,0.00,WeatherDisplay:10.37,2013-11-11 11:52:00,
2013-11-11 06:57:00,40.8,33.8,30.08,SW,224,4.8,10.4,76,0.00,CLR,,0.00,WeatherDisplay:10.37,2013-11-11 11:57:00,
2013-11-11 07:02:00,40.8,33.8,30.08,WSW,253,1.4,4.6,76,0.00,CLR,,0.00,WeatherDisplay:10.37,2013-11-11 12:02:00,
2013-11-11 07:07:00,40.8,33.8,30.08,SSW,204,4.3,11.5,76,0.00,CLR,,0.00,WeatherDisplay:10.37,2013-11-11 12:07:00,
2013-11-11 07:12:00,40.9,33.9,30.07,SW,232,3.9,8.1,76,0.00,CLR,,0.00,WeatherDisplay:10.37,2013-11-11 12:12:00,
2013-11-11 07:17:00,40.9,33.9,30.08,SW,221,6.6,11.5,76,0.00,CLR,,0.00,WeatherDisplay:10.37,2013-11-11 12:17:00,
2013-11-11 07:22:00,40.9,33.9,30.07,SW,233,2.4,3.5,76,0.00,CLR,,0.00,WeatherDisplay:10.37,2013-11-11 12:22:00,
2013-11-11 07:27:00,40.9,33.9,30.07,SW,227,6.1,10.4,76,0.00,CLR,,0.00,WeatherDisplay:10.37,2013-11-11 12:27:00,
2013-11-11 07:32:00,41.0,34.0,30.08,WSW,258,6.7,11.5,76,0.00,CLR,,0.00,WeatherDisplay:10.37,2013-11-11 12:32:00,
2013-11-11 07:37:00,41.0,34.0,30.08,WSW,252,5.1,10.4,76,0.00,CLR,,0.00,WeatherDisplay:10.37,2013-11-11 12:37:00,
2013-11-11 07:42:00,41.1,34.1,30.08,West,259,5.3,11.5,76,0.00,CLR,,0.00,WeatherDisplay:10.37,2013-11-11 12:42:00,
2013-11-11 07:47:00,41.2,34.2,30.08,SW,236,4.1,11.5,76,0.00,CLR,,0.00,WeatherDisplay:10.37,2013-11-11 12:47:00,
2013-11-11 07:52:00,41.2,34.2,30.08,SW,222,6.8,10.4,76,0.00,CLR,,0.00,WeatherDisplay:10.37,2013-11-11 12:52:00,
2013-11-11 07:57:00,41.2,34.2,30.08,SW,234,5.8,11.5,76,0.00,CLR,,0.00,WeatherDisplay:10.37,2013-11-11 12:57:00,
2013-11-11 08:02:00,41.2,34.2,30.08,SW,221,6.4,10.4,76,0.00,CLR,,0.00,WeatherDisplay:10.37,2013-11-11 13:02:00,
2013-11-11 08:07:00,41.3,34.3,30.08,SW,228,7.6,11.5,76,0.00,CLR,,0.00,WeatherDisplay:10.37,2013-11-11 13:07:00,
2013-11-11 08:12:00,41.3,34.3,30.08,WSW,256,4.3,5.8,76,0.00,CLR,,0.00,WeatherDisplay:10.37,2013-11-11 13:12:00,
2013-11-11 08:17:00,41.3,34.3,30.07,SW,228,5.5,8.1,76,0.00,CLR,,0.00,WeatherDisplay:10.37,2013-11-11 13:17:00,
2013-11-11 08:22:00,41.3,34.3,30.07,SW,229,5.6,8.1,76,0.00,CLR,,0.00,WeatherDisplay:10.37,2013-11-11 13:22:00,
2013-11-11 08:27:00,41.3,34.3,30.06,WSW,238,6.5,12.7,76,0.00,CLR,,0.00,WeatherDisplay:10.37,2013-11-11 13:27:00,
2013-11-11 08:32:00,41.4,34.4,30.07,SW,232,6.2,13.8,76,0.00,CLR,,0.00,WeatherDisplay:10.37,2013-11-11 13:32:00,
2013-11-11 08:37:00,41.5,34.5,30.07,WSW,248,6.6,13.8,76,0.00,CLR,,0.00,WeatherDisplay:10.37,2013-11-11 13:37:00,
2013-11-11 08:42:00,41.6,34.6,30.07,West,259,5.3,8.1,76,0.00,CLR,,0.00,WeatherDisplay:10.37,2013-11-11 13:42:00,
2013-11-11 08:47:00,41.7,34.7,30.07,WSW,244,8.7,11.5,76,0.00,CLR,,0.00,WeatherDisplay:10.37,2013-11-11 13:47:00,
2013-11-11 08:52:00,41.7,34.4,30.07,WSW,245,5.2,11.5,75,0.00,CLR,,0.00,WeatherDisplay:10.37,2013-11-11 13:52:00,
2013-11-11 08:57:00,41.7,34.4,30.07,WSW,246,7.3,12.7,75,0.00,CLR,,0.00,WeatherDisplay:10.37,2013-11-11 13:57:00,
2013-11-11 09:02:00,41.8,34.5,30.06,WSW,254,7.3,10.0,75,0.00,CLR,,0.00,WeatherDisplay:10.37,2013-11-11 14:02:00,
2013-11-11 09:07:00,41.9,34.9,30.06,WSW,242,8.0,15.0,76,0.00,CLR,,0.00,WeatherDisplay:10.37,2013-11-11 14:07:00,
2013-11-11 09:12:00,41.9,34.9,30.07,SW,232,5.8,8.1,76,0.00,CLR,,0.00,WeatherDisplay:10.37,2013-11-11 14:12:00,
2013-11-11 09:17:00,42.0,35.0,30.06,SW,227,2.4,6.0,76,0.00,CLR,,0.00,WeatherDisplay:10.37,2013-11-11 14:17:00,
2013-11-11 09:22:00,42.1,34.7,30.06,SW,220,6.7,13.8,75,0.00,CLR,,0.00,WeatherDisplay:10.37,2013-11-11 14:22:00,
2013-11-11 09:27:00,42.2,34.8,30.06,SW,236,3.6,14.0,75,0.00,CLR,,0.00,WeatherDisplay:10.37,2013-11-11 14:27:00,
2013-11-11 09:32:00,42.4,35.0,30.06,West,260,6.7,18.4,75,0.00,CLR,,0.00,WeatherDisplay:10.37,2013-11-11 14:32:00,
2013-11-11 09:37:00,42.5,35.1,30.06,West,267,6.5,12.7,75,0.00,CLR,,0.00,WeatherDisplay:10.37,2013-11-11 14:37:00,
2013-11-11 09:42:00,42.7,35.3,30.06,South,188,11.3,20.0,75,0.00,CLR,,0.00,WeatherDisplay:10.37,2013-11-11 14:42:00,
2013-11-11 09:47:00,42.8,35.1,30.06,WSW,240,5.9,16.1,74,0.00,CLR,,0.00,WeatherDisplay:10.37,2013-11-11 14:47:00,
2013-11-11 09:52:00,42.9,35.2,30.05,WSW,244,4.5,10.4,74,0.00,CLR,,0.00,WeatherDisplay:10.37,2013-11-11 14:52:00,
2013-11-11 09:57:00,43.0,35.3,30.05,WSW,247,6.0,10.4,74,0.00,CLR,,0.00,WeatherDisplay:10.37,2013-11-11 14:57:00,
2013-11-11 10:02:00,43.0,35.3,30.05,WSW,246,6.6,6.9,74,0.00,CLR,,0.00,WeatherDisplay:10.37,2013-11-11 15:02:00,
2013-11-11 10:07:00,43.0,35.3,30.06,WNW,283,7.7,11.5,74,0.00,CLR,,0.00,WeatherDisplay:10.37,2013-11-11 15:07:00,
2013-11-11 10:12:00,43.0,35.3,30.06,SSW,202,5.3,19.6,74,0.00,CLR,,0.00,WeatherDisplay:10.37,2013-11-11 15:12:00,
2013-11-11 10:17:00,43.0,35.3,30.06,West,267,5.7,10.4,74,0.00,CLR,,0.00,WeatherDisplay:10.37,2013-11-11 15:17:00,
2013-11-11 10:22:00,43.0,35.3,30.06,WSW,237,3.9,10.4,74,0.00,CLR,,0.00,WeatherDisplay:10.37,2013-11-11 15:22:00,
2013-11-11 10:27:00,43.1,35.4,30.06,SW,233,5.5,9.2,74,0.00,CLR,,0.00,WeatherDisplay:10.37,2013-11-11 15:27:00,
2013-11-11 10:32:00,43.2,35.5,30.06,West,261,10.2,15.0,74,0.00,CLR,,0.00,WeatherDisplay:10.37,2013-11-11 15:32:00,
2013-11-11 10:37:00,43.2,35.5,30.06,West,262,5.4,6.9,74,0.00,CLR,,0.00,WeatherDisplay:10.37,2013-11-11 15:37:00,
2013-11-11 10:42:00,43.3,35.6,30.05,WSW,249,2.1,5.8,74,0.00,CLR,,0.00,WeatherDisplay:10.37,2013-11-11 15:42:00,
2013-11-11 10:47:00,43.2,35.5,30.05,SW,225,4.2,9.2,74,0.00,CLR,,0.00,WeatherDisplay:10.37,2013-11-11 15:47:00,
2013-11-11 10:52:00,43.3,35.9,30.05,SW,236,2.8,6.0,75,0.00,CLR,,0.00,WeatherDisplay:10.37,2013-11-11 15:52:00,
2013-11-11 10:57:00,43.3,35.9,30.05,WSW,240,2.4,11.5,75,0.00,CLR,,0.00,WeatherDisplay:10.37,2013-11-11 15:57:00,
2013-11-11 11:02:00,43.4,35.7,30.05,West,263,5.1,8.1,74,0.00,CLR,,0.00,WeatherDisplay:10.37,2013-11-11 16:02:00,
2013-11-11 11:07:00,43.4,35.7,30.05,WSW,249,7.9,12.7,74,0.00,CLR,,0.00,WeatherDisplay:10.37,2013-11-11 16:07:00,
2013-11-11 11:12:00,43.5,35.8,30.05,SW,236,7.0,10.4,74,0.00,CLR,,0.00,WeatherDisplay:10.37,2013-11-11 16:12:00,
2013-11-11 11:17:00,43.6,35.9,30.05,West,269,6.0,9.2,74,0.00,CLR,,0.00,WeatherDisplay:10.37,2013-11-11 16:17:00,
2013-11-11 11:22:00,43.6,35.9,30.05,WSW,239,5.8,10.4,74,0.00,CLR,,0.00,WeatherDisplay:10.37,2013-11-11 16:22:00,
2013-11-11 11:27:00,43.7,36.0,30.05,WSW,243,6.3,10.4,74,0.00,CLR,,0.00,WeatherDisplay:10.37,2013-11-11 16:27:00,
2013-11-11 11:32:00,43.7,36.0,30.04,WSW,246,5.7,9.2,74,0.00,CLR,,0.00,WeatherDisplay:10.37,2013-11-11 16:32:00,
2013-11-11 11:37:00,43.8,36.4,30.04,WSW,252,2.1,4.6,75,0.00,CLR,,0.00,WeatherDisplay:10.37,2013-11-11 16:37:00,
2013-11-11 11:42:00,43.7,36.0,30.04,West,267,7.5,12.7,74,0.00,CLR,,0.00,WeatherDisplay:10.37,2013-11-11 16:42:00,
2013-11-11 11:47:00,43.7,36.3,30.04,WSW,251,6.7,10.4,75,0.00,CLR,,0.00,WeatherDisplay:10.37,2013-11-11 16:47:00,
2013-11-11 11:52:00,43.7,36.6,30.04,WSW,239,2.4,4.6,76,0.00,CLR,,0.00,WeatherDisplay:10.37,2013-11-11 16:52:00,
2013-11-11 11:57:00,43.6,36.9,30.03,West,271,1.5,3.0,77,0.00,CLR,,0.00,WeatherDisplay:10.37,2013-11-11 16:57:00,
2013-11-11 12:02:00,43.5,37.1,30.03,WSW,248,5.6,8.1,78,0.00,CLR,,0.00,WeatherDisplay:10.37,2013-11-11 17:02:00,
2013-11-11 12:07:00,43.4,37.0,30.03,West,261,4.0,5.8,78,0.00,CLR,,0.00,WeatherDisplay:10.37,2013-11-11 17:07:00,
2013-11-11 12:12:00,43.4,37.3,30.02,SW,234,2.7,8.1,79,0.00,CLR,,0.00,WeatherDisplay:10.37,2013-11-11 17:12:00,
2013-11-11 12:17:00,43.5,37.4,30.02,West,277,4.5,9.0,79,0.00,CLR,,0.00,WeatherDisplay:10.37,2013-11-11 17:17:00,
2013-11-11 12:22:00,43.6,37.8,30.02,SW,234,6.4,9.2,80,0.00,CLR,,0.00,WeatherDisplay:10.37,2013-11-11 17:22:00,
2013-11-11 12:27:00,43.6,38.2,30.02,WSW,246,4.7,8.1,81,0.00,CLR,,0.00,WeatherDisplay:10.37,2013-11-11 17:27:00,
2013-11-11 12:32:00,43.6,38.2,30.02,WSW,256,6.3,11.5,81,0.00,CLR,,0.00,WeatherDisplay:10.37,2013-11-11 17:32:00,
2013-11-11 12:37:00,43.6,38.5,30.02,WSW,251,5.3,6.9,82,0.01,RA,,0.01,WeatherDisplay:10.37,2013-11-11 17:37:00,
2013-11-11 12:42:00,43.6,38.5,30.02,WSW,254,5.4,6.9,82,0.01,RA,,0.01,WeatherDisplay:10.37,2013-11-11 17:42:00,
2013-11-11 12:47:00,43.7,38.6,30.02,WSW,253,2.9,3.5,82,0.01,CLR,,0.01,WeatherDisplay:10.37,2013-11-11 17:47:00,
2013-11-11 12:52:00,43.7,38.6,30.01,WSW,248,1.8,4.0,82,0.01,CLR,,0.01,WeatherDisplay:10.37,2013-11-11 17:52:00,
2013-11-11 12:57:00,43.8,39.0,30.01,West,264,6.8,10.4,83,0.01,CLR,,0.01,WeatherDisplay:10.37,2013-11-11 17:57:00,
2013-11-11 13:02:00,43.8,39.0,30.01,West,267,5.0,9.0,83,0.01,CLR,,0.01,WeatherDisplay:10.37,2013-11-11 18:02:00,
2013-11-11 13:07:00,43.8,39.0,30.01,West,272,5.4,10.4,83,0.01,CLR,,0.01,WeatherDisplay:10.37,2013-11-11 18:07:00,
2013-11-11 13:12:00,43.8,39.0,30.02,West,277,2.7,9.2,83,0.01,CLR,,0.01,WeatherDisplay:10.37,2013-11-11 18:12:00,
2013-11-11 13:17:00,43.7,39.2,30.02,West,273,0.3,5.0,84,0.01,CLR,,0.01,WeatherDisplay:10.37,2013-11-11 18:17:00,
2013-11-11 13:22:00,43.8,39.3,30.02,West,279,4.3,6.9,84,0.01,CLR,,0.01,WeatherDisplay:10.37,2013-11-11 18:22:00,
2013-11-11 13:27:00,43.6,39.1,30.02,West,267,0.6,6.0,84,0.01,CLR,,0.01,WeatherDisplay:10.37,2013-11-11 18:27:00,
2013-11-11 13:32:00,43.6,39.4,30.02,West,279,2.9,7.0,85,0.01,CLR,,0.01,WeatherDisplay:10.37,2013-11-11 18:32:00,
2013-11-11 13:37:00,43.4,39.2,30.02,WNW,288,4.1,9.2,85,0.01,RA,,0.02,WeatherDisplay:10.37,2013-11-11 18:37:00,
2013-11-11 13:42:00,43.2,39.3,30.02,West,260,9.2,11.5,86,0.01,RA,,0.02,WeatherDisplay:10.37,2013-11-11 18:42:00,
2013-11-11 13:47:00,43.1,39.2,30.02,West,280,5.1,8.1,86,0.01,CLR,,0.02,WeatherDisplay:10.37,2013-11-11 18:47:00,
2013-11-11 13:52:00,43.0,39.1,30.02,West,269,2.5,8.1,86,0.01,CLR,,0.02,WeatherDisplay:10.37,2013-11-11 18:52:00,
2013-11-11 13:57:00,43.0,39.1,30.02,WSW,257,1.2,7.0,86,0.01,CLR,,0.02,WeatherDisplay:10.37,2013-11-11 18:57:00,
2013-11-11 14:02:00,43.0,39.4,30.02,WSW,252,6.7,12.7,87,0.01,CLR,,0.02,WeatherDisplay:10.37,2013-11-11 19:02:00,
2013-11-11 14:07:00,42.7,38.8,30.02,WNW,282,5.4,8.1,86,0.01,CLR,,0.02,WeatherDisplay:10.37,2013-11-11 19:07:00,
2013-11-11 14:12:00,42.6,39.0,30.02,West,277,2.7,6.0,87,0.01,CLR,,0.02,WeatherDisplay:10.37,2013-11-11 19:12:00,
2013-11-11 14:17:00,42.5,38.9,30.02,West,259,4.9,9.2,87,0.02,RA,,0.03,WeatherDisplay:10.37,2013-11-11 19:17:00,
2013-11-11 14:22:00,42.5,38.9,30.03,West,261,1.6,4.6,87,0.02,RA,,0.03,WeatherDisplay:10.37,2013-11-11 19:22:00,
2013-11-11 14:27:00,42.5,38.9,30.03,West,271,4.2,8.0,87,0.02,CLR,,0.03,WeatherDisplay:10.37,2013-11-11 19:27:00,
2013-11-11 14:32:00,42.4,38.8,30.03,WNW,287,3.9,5.8,87,0.02,CLR,,0.03,WeatherDisplay:10.37,2013-11-11 19:32:00,
2013-11-11 14:37:00,42.3,38.7,30.03,West,272,6.5,9.2,87,0.01,CLR,,0.03,WeatherDisplay:10.37,2013-11-11 19:37:00,
2013-11-11 14:42:00,42.2,38.6,30.03,West,269,5.5,9.2,87,0.02,RA,,0.04,WeatherDisplay:10.37,2013-11-11 19:42:00,
2013-11-11 14:47:00,42.2,38.6,30.03,WNW,290,3.5,4.6,87,0.02,RA,,0.04,WeatherDisplay:10.37,2013-11-11 19:47:00,
2013-11-11 14:52:00,42.1,38.5,30.03,NW,311,3.0,4.6,87,0.02,CLR,,0.04,WeatherDisplay:10.37,2013-11-11 19:52:00,
2013-11-11 14:57:00,42.0,38.4,30.03,WNW,288,4.6,8.1,87,0.02,CLR,,0.05,WeatherDisplay:10.37,2013-11-11 19:57:00,
2013-11-11 15:02:00,41.8,38.2,30.03,NNW,328,5.3,11.5,87,0.03,RA,,0.05,WeatherDisplay:10.37,2013-11-11 20:02:00,
2013-11-11 15:07:00,41.4,37.8,30.04,NNW,344,3.7,5.0,87,0.04,RA,,0.06,WeatherDisplay:10.37,2013-11-11 20:07:00,
2013-11-11 15:12:00,41.2,37.6,30.04,NNW,337,1.6,3.5,87,0.04,RA,,0.06,WeatherDisplay:10.37,2013-11-11 20:12:00,
2013-11-11 15:17:00,41.0,37.4,30.04,NW,312,3.5,9.2,87,0.03,CLR,,0.07,WeatherDisplay:10.37,2013-11-11 20:17:00,
2013-11-11 15:22:00,40.6,37.0,30.04,NNW,332,7.6,11.5,87,0.04,RA,,0.07,WeatherDisplay:10.37,2013-11-11 20:22:00,
2013-11-11 15:27:00,40.4,36.8,30.05,NNW,331,0.8,6.9,87,0.04,RA,,0.07,WeatherDisplay:10.37,2013-11-11 20:27:00,
2013-11-11 15:32:00,40.3,36.7,30.05,North,355,3.5,5.8,87,0.04,CLR,,0.07,WeatherDisplay:10.37,2013-11-11 20:32:00,
2013-11-11 15:37:00,40.1,36.8,30.05,NNW,332,1.9,4.6,88,0.05,RA,,0.08,WeatherDisplay:10.37,2013-11-11 20:37:00,
2013-11-11 15:42:00,40.0,36.7,30.05,NNW,348,3.2,7.0,88,0.04,RA,,0.08,WeatherDisplay:10.37,2013-11-11 20:42:00,
2013-11-11 15:47:00,39.8,36.5,30.05,NNW,331,2.4,8.1,88,0.04,CLR,,0.08,WeatherDisplay:10.37,2013-11-11 20:47:00,
2013-11-11 15:52:00,39.8,36.5,30.06,NNW,331,0.1,2.3,88,0.04,CLR,,0.08,WeatherDisplay:10.37,2013-11-11 20:52:00,
2013-11-11 15:57:00,39.7,36.4,30.06,NW,319,2.8,7.0,88,0.04,CLR,,0.08,WeatherDisplay:10.37,2013-11-11 20:57:00,
2013-11-11 16:02:00,39.4,36.1,30.07,NW,325,2.0,8.1,88,0.03,CLR,,0.08,WeatherDisplay:10.37,2013-11-11 21:02:00,
2013-11-11 16:07:00,39.1,35.8,30.07,NNW,329,0.3,8.1,88,0.02,CLR,,0.08,WeatherDisplay:10.37,2013-11-11 21:07:00,
2013-11-11 16:12:00,38.9,35.6,30.07,WNW,301,0.0,5.8,88,0.03,RA,,0.09,WeatherDisplay:10.37,2013-11-11 21:12:00,
2013-11-11 16:17:00,38.9,35.6,30.07,WNW,299,3.1,9.2,88,0.03,RA,,0.09,WeatherDisplay:10.37,2013-11-11 21:17:00,
2013-11-11 16:22:00,38.8,35.6,30.08,NNW,335,3.8,9.2,88,0.02,CLR,,0.09,WeatherDisplay:10.37,2013-11-11 21:22:00,
2013-11-11 16:27:00,38.7,35.5,30.08,NNW,338,4.6,8.1,88,0.02,CLR,,0.09,WeatherDisplay:10.37,2013-11-11 21:27:00,
2013-11-11 16:32:00,38.5,35.3,30.08,NW,309,8.0,12.7,88,0.03,RA,,0.10,WeatherDisplay:10.37,2013-11-11 21:32:00,
2013-11-11 16:37:00,38.2,35.0,30.09,North,355,6.9,13.8,88,0.02,RA,,0.10,WeatherDisplay:10.37,2013-11-11 21:37:00,
2013-11-11 16:42:00,37.7,34.5,30.10,NNW,340,6.4,15.0,88,0.02,CLR,,0.10,WeatherDisplay:10.37,2013-11-11 21:42:00,
2013-11-11 16:47:00,36.7,33.5,30.10,North,355,9.2,14.0,88,0.02,CLR,,0.10,WeatherDisplay:10.37,2013-11-11 21:47:00,
2013-11-11 16:52:00,35.9,32.7,30.11,North,355,5.5,11.5,88,0.02,CLR,,0.10,WeatherDisplay:10.37,2013-11-11 21:52:00,
2013-11-11 16:57:00,35.4,32.2,30.11,NNE,18,5.9,10.0,88,0.02,CLR,,0.10,WeatherDisplay:10.37,2013-11-11 21:57:00,
2013-11-11 17:02:00,35.1,31.9,30.11,NNW,344,3.3,5.8,88,0.02,CLR,,0.10,WeatherDisplay:10.37,2013-11-11 22:02:00,
2013-11-11 17:07:00,34.9,31.7,30.12,North,351,0.8,4.6,88,0.03,RA,,0.11,WeatherDisplay:10.37,2013-11-11 22:07:00,
2013-11-11 17:12:00,34.8,31.6,30.12,North,5,0.0,2.3,88,0.02,RA,,0.11,WeatherDisplay:10.37,2013-11-11 22:12:00,
2013-11-11 17:17:00,34.7,31.5,30.12,North,5,0.1,3.5,88,0.02,CLR,,0.11,WeatherDisplay:10.37,2013-11-11 22:17:00,
2013-11-11 17:22:00,34.6,31.4,30.12,NNE,12,1.8,5.8,88,0.02,CLR,,0.11,WeatherDisplay:10.37,2013-11-11 22:22:00,
2013-11-11 17:27:00,34.4,31.2,30.12,North,349,4.3,5.8,88,0.02,CLR,,0.11,WeatherDisplay:10.37,2013-11-11 22:27:00,
2013-11-11 17:32:00,34.3,31.1,30.13,North,355,2.0,5.8,88,0.01,CLR,,0.11,WeatherDisplay:10.37,2013-11-11 22:32:00,
2013-11-11 17:37:00,34.2,31.0,30.13,North,5,5.2,6.9,88,0.01,CLR,,0.11,WeatherDisplay:10.37,2013-11-11 22:37:00,
2013-11-11 17:42:00,34.1,31.2,30.13,NNE,13,2.7,8.1,89,0.01,CLR,,0.11,WeatherDisplay:10.37,2013-11-11 22:42:00,
2013-11-11 17:47:00,33.9,31.0,30.14,NNW,341,3.6,10.4,89,0.01,CLR,,0.11,WeatherDisplay:10.37,2013-11-11 22:47:00,
2013-11-11 17:52:00,33.7,30.8,30.14,NNW,348,5.8,9.2,89,0.01,CLR,,0.11,WeatherDisplay:10.37,2013-11-11 22:52:00,
2013-11-11 17:57:00,33.4,30.5,30.15,North,355,0.6,6.9,89,0.01,CLR,,0.11,WeatherDisplay:10.37,2013-11-11 22:57:00,
2013-11-11 18:02:00,33.4,30.5,30.14,NNW,342,3.1,5.8,89,0.01,CLR,,0.11,WeatherDisplay:10.37,2013-11-11 23:02:00,
2013-11-11 18:07:00,33.3,30.4,30.15,NNW,342,0.2,3.5,89,0.00,CLR,,0.11,WeatherDisplay:10.37,2013-11-11 23:07:00,
2013-11-11 18:12:00,33.2,30.3,30.15,NNE,24,0.1,4.6,89,0.00,CLR,,0.11,WeatherDisplay:10.37,2013-11-11 23:12:00,
2013-11-11 18:17:00,33.0,30.1,30.16,NNW,342,0.8,6.9,89,0.00,CLR,,0.11,WeatherDisplay:10.37,2013-11-11 23:17:00,
2013-11-11 18:22:00,32.9,30.0,30.17,North,10,5.4,8.0,89,0.00,CLR,,0.11,WeatherDisplay:10.37,2013-11-11 23:22:00,
2013-11-11 18:27:00,32.3,29.4,30.17,North,5,8.8,18.4,89,0.00,CLR,,0.11,WeatherDisplay:10.37,2013-11-11 23:27:00,
2013-11-11 18:32:00,31.6,28.7,30.17,North,355,1.1,4.6,89,0.00,CLR,,0.11,WeatherDisplay:10.37,2013-11-11 23:32:00,
2013-11-11 18:37:00,31.3,28.4,30.18,North,11,7.2,13.8,89,0.00,CLR,,0.11,WeatherDisplay:10.37,2013-11-11 23:37:00,
2013-11-11 18:42:00,30.8,27.9,30.18,NNE,13,9.1,19.6,89,0.00,CLR,,0.11,WeatherDisplay:10.37,2013-11-11 23:42:00,
2013-11-11 18:47:00,30.3,27.4,30.18,North,355,9.0,13.8,89,0.00,CLR,,0.11,WeatherDisplay:10.37,2013-11-11 23:47:00,
2013-11-11 18:52:00,30.1,27.3,30.19,North,355,5.6,10.4,89,0.00,CLR,,0.11,WeatherDisplay:10.37,2013-11-11 23:52:00,
2013-11-11 18:57:00,30.1,27.3,30.18,North,360,3.5,6.9,89,0.00,CLR,,0.11,WeatherDisplay:10.37,2013-11-11 23:57:00,
2013-11-11 19:02:00,30.1,27.3,30.18,NNE,32,4.2,5.0,89,0.00,CLR,,0.11,WeatherDisplay:10.37,2013-11-12 00:02:00,
2013-11-11 19:07:00,30.1,27.3,30.18,North,11,5.6,7.0,89,0.00,CLR,,0.11,WeatherDisplay:10.37,2013-11-12 00:07:00,
2013-11-11 19:12:00,30.1,27.3,30.19,NNE,33,0.8,2.0,89,0.00,CLR,,0.11,WeatherDisplay:10.37,2013-11-12 00:12:00,
2013-11-11 19:17:00,30.2,27.3,30.19,North,355,3.6,6.9,89,0.00,CLR,,0.11,WeatherDisplay:10.37,2013-11-12 00:17:00,
2013-11-11 19:22:00,30.2,27.3,30.19,NNW,340,1.1,6.9,89,0.00,CLR,,0.11,WeatherDisplay:10.37,2013-11-12 00:22:00,
2013-11-11 19:27:00,30.2,27.3,30.19,NNW,338,1.4,4.6,89,0.00,CLR,,0.11,WeatherDisplay:10.37,2013-11-12 00:27:00,
2013-11-11 19:32:00,30.2,27.3,30.19,North,350,1.5,3.5,89,0.00,CLR,,0.11,WeatherDisplay:10.37,2013-11-12 00:32:00,
2013-11-11 19:37:00,30.3,27.4,30.19,North,355,2.3,4.6,89,0.00,CLR,,0.11,WeatherDisplay:10.37,2013-11-12 00:37:00,
2013-11-11 19:42:00,30.3,27.4,30.20,NNW,346,2.2,2.3,89,0.00,CLR,,0.11,WeatherDisplay:10.37,2013-11-12 00:42:00,
2013-11-11 19:47:00,30.4,27.5,30.20,NW,326,0.9,6.9,89,0.00,CLR,,0.11,WeatherDisplay:10.37,2013-11-12 00:47:00,
2013-11-11 19:52:00,30.5,27.6,30.20,NNW,338,0.0,0.0,89,0.00,CLR,,0.11,WeatherDisplay:10.37,2013-11-12 00:52:00,
2013-11-11 19:57:00,30.5,27.6,30.20,North,350,3.7,9.0,89,0.00,CLR,,0.11,WeatherDisplay:10.37,2013-11-12 00:57:00,
2013-11-11 20:02:00,30.5,27.6,30.20,NNW,340,2.2,4.6,89,0.00,CLR,,0.11,WeatherDisplay:10.37,2013-11-12 01:02:00,
2013-11-11 20:07:00,30.6,27.7,30.20,NNE,14,1.0,8.1,89,0.00,CLR,,0.11,WeatherDisplay:10.37,2013-11-12 01:07:00,
2013-11-11 20:12:00,30.7,27.8,30.21,NE,40,3.5,6.9,89,0.00,CLR,,0.11,WeatherDisplay:10.37,2013-11-12 01:12:00,
2013-11-11 20:17:00,30.6,27.5,30.21,NNW,346,4.4,9.0,88,0.00,CLR,,0.11,WeatherDisplay:10.37,2013-11-12 01:17:00,
2013-11-11 20:22:00,30.5,27.4,30.21,North,5,7.3,11.5,88,0.00,CLR,,0.11,WeatherDisplay:10.37,2013-11-12 01:22:00,
2013-11-11 20:27:00,30.5,27.1,30.21,NNW,348,2.3,4.6,87,0.00,CLR,,0.11,WeatherDisplay:10.37,2013-11-12 01:27:00,
2013-11-11 20:32:00,30.4,26.7,30.22,North,349,3.3,6.9,86,0.00,CLR,,0.11,WeatherDisplay:10.37,2013-11-12 01:32:00,
2013-11-11 20:37:00,30.4,26.7,30.22,North,360,5.1,9.2,86,0.00,CLR,,0.11,WeatherDisplay:10.37,2013-11-12 01:37:00,
2013-11-11 20:42:00,30.4,26.4,30.22,NNW,342,3.8,8.1,85,0.00,CLR,,0.11,WeatherDisplay:10.37,2013-11-12 01:42:00,
2013-11-11 20:47:00,30.4,26.4,30.22,North,351,0.9,4.6,85,0.00,CLR,,0.11,WeatherDisplay:10.37,2013-11-12 01:47:00,
2013-11-11 20:52:00,30.3,26.0,30.22,NNW,335,2.9,9.2,84,0.00,CLR,,0.11,WeatherDisplay:10.37,2013-11-12 01:52:00,
2013-11-11 20:57:00,30.3,25.8,30.23,NNE,13,0.3,8.1,83,0.00,CLR,,0.11,WeatherDisplay:10.37,2013-11-12 01:57:00,
2013-11-11 21:02:00,30.3,25.8,30.23,NNW,348,2.0,5.8,83,0.00,CLR,,0.11,WeatherDisplay:10.37,2013-11-12 02:02:00,
2013-11-11 21:07:00,30.3,25.8,30.23,NNW,348,2.9,6.9,83,0.00,CLR,,0.11,WeatherDisplay:10.37,2013-11-12 02:07:00,
2013-11-11 21:12:00,30.2,25.4,30.23,North,350,1.4,10.4,82,0.00,CLR,,0.11,WeatherDisplay:10.37,2013-11-12 02:12:00,
2013-11-11 21:17:00,30.2,25.4,30.24,NNW,329,3.0,12.0,82,0.00,CLR,,0.11,WeatherDisplay:10.37,2013-11-12 02:17:00,
2013-11-11 21:22:00,30.2,25.1,30.24,North,5,3.9,8.1,81,0.00,CLR,,0.11,WeatherDisplay:10.37,2013-11-12 02:22:00,
2013-11-11 21:27:00,30.2,25.1,30.24,North,349,7.3,12.0,81,0.00,CLR,,0.11,WeatherDisplay:10.37,2013-11-12 02:27:00,
2013-11-11 21:32:00,30.1,24.4,30.24,NNW,344,4.4,10.4,79,0.00,CLR,,0.11,WeatherDisplay:10.37,2013-11-12 02:32:00,
2013-11-11 21:37:00,30.1,24.7,30.24,North,349,5.2,7.0,80,0.00,CLR,,0.11,WeatherDisplay:10.37,2013-11-12 02:37:00,
2013-11-11 21:42:00,30.1,24.4,30.25,NNW,346,2.8,6.9,79,0.00,CLR,,0.11,WeatherDisplay:10.37,2013-11-12 02:42:00,
2013-11-11 21:47:00,30.1,24.4,30.25,North,360,2.3,6.9,79,0.00,CLR,,0.11,WeatherDisplay:10.37,2013-11-12 02:47:00,
2013-11-11 21:52:00,30.0,24.3,30.25,North,5,2.6,4.0,79,0.00,CLR,,0.11,WeatherDisplay:10.37,2013-11-12 02:52:00,
2013-11-11 21:57:00,30.0,24.0,30.25,NW,311,4.0,10.4,78,0.00,CLR,,0.11,WeatherDisplay:10.37,2013-11-12 02:57:00,
2013-11-11 22:02:00,30.0,23.7,30.26,NW,313,2.4,5.8,77,0.00,CLR,,0.11,WeatherDisplay:10.37,2013-11-12 03:02:00,
2013-11-11 22:07:00,30.0,23.7,30.26,NW,319,4.1,5.8,77,0.00,CLR,,0.11,WeatherDisplay:10.37,2013-11-12 03:07:00,
2013-11-11 22:12:00,30.0,24.0,30.26,NNE,24,5.1,6.9,78,0.00,CLR,,0.11,WeatherDisplay:10.37,2013-11-12 03:12:00,
2013-11-11 22:17:00,30.1,24.1,30.26,NW,313,4.5,11.5,78,0.00,CLR,,0.11,WeatherDisplay:10.37,2013-11-12 03:17:00,
2013-11-11 22:22:00,30.1,24.1,30.26,NNW,346,2.6,3.5,78,0.00,CLR,,0.11,WeatherDisplay:10.37,2013-11-12 03:22:00,
2013-11-11 22:27:00,30.1,23.8,30.27,NNE,17,5.7,11.0,77,0.00,CLR,,0.11,WeatherDisplay:10.37,2013-11-12 03:27:00,
2013-11-11 22:32:00,30.1,23.8,30.27,North,5,5.1,6.9,77,0.00,CLR,,0.11,WeatherDisplay:10.37,2013-11-12 03:32:00,
2013-11-11 22:37:00,30.0,23.7,30.27,North,349,2.1,10.4,77,0.00,CLR,,0.11,WeatherDisplay:10.37,2013-11-12 03:37:00,
2013-11-11 22:42:00,29.9,23.6,30.28,NNW,342,2.2,8.1,77,0.00,CLR,,0.11,WeatherDisplay:10.37,2013-11-12 03:42:00,
2013-11-11 22:47:00,29.9,23.6,30.28,NW,305,7.5,12.7,77,0.00,CLR,,0.11,WeatherDisplay:10.37,2013-11-12 03:47:00,
2013-11-11 22:52:00,29.9,23.3,30.28,NNW,344,3.9,12.7,76,0.00,CLR,,0.11,WeatherDisplay:10.37,2013-11-12 03:52:00,
2013-11-11 22:57:00,29.9,22.9,30.28,NNW,331,5.2,9.2,75,0.00,CLR,,0.11,WeatherDisplay:10.37,2013-11-12 03:57:00,
2013-11-11 23:02:00,29.8,23.2,30.28,WNW,302,2.4,10.4,76,0.00,CLR,,0.11,WeatherDisplay:10.37,2013-11-12 04:02:00,
2013-11-11 23:07:00,29.8,22.8,30.28,NNW,328,7.8,12.7,75,0.00,CLR,,0.11,WeatherDisplay:10.37,2013-11-12 04:07:00,
2013-11-11 23:12:00,29.7,22.4,30.29,NW,313,3.0,6.9,74,0.00,CLR,,0.11,WeatherDisplay:10.37,2013-11-12 04:12:00,
2013-11-11 23:17:00,29.7,22.4,30.29,NW,322,2.7,4.6,74,0.00,CLR,,0.11,WeatherDisplay:10.37,2013-11-12 04:17:00,
2013-11-11 23:22:00,29.6,22.3,30.29,NNW,342,5.1,10.4,74,0.00,CLR,,0.11,WeatherDisplay:10.37,2013-11-12 04:22:00,
2013-11-11 23:27:00,29.5,22.2,30.29,North,360,5.5,9.2,74,0.00,CLR,,0.11,WeatherDisplay:10.37,2013-11-12 04:27:00,
2013-11-11 23:32:00,29.4,21.8,30.29,North,5,6.2,10.4,73,0.00,CLR,,0.11,WeatherDisplay:10.37,2013-11-12 04:32:00,
2013-11-11 23:37:00,29.4,21.8,30.29,North,5,6.8,15.0,73,0.00,CLR,,0.11,WeatherDisplay:10.37,2013-11-12 04:37:00,
2013-11-11 23:42:00,29.4,21.5,30.29,North,360,2.7,12.7,72,0.00,CLR,,0.11,WeatherDisplay:10.37,2013-11-12 04:42:00,
2013-11-11 23:47:00,29.3,21.4,30.30,North,355,5.9,11.5,72,0.00,CLR,,0.11,WeatherDisplay:10.37,2013-11-12 04:47:00,
2013-11-11 23:52:00,29.3,21.1,30.30,North,10,4.3,9.2,71,0.00,CLR,,0.11,WeatherDisplay:10.37,2013-11-12 04:52:00,
2013-11-11 23:57:00,29.2,21.3,30.30,NW,321,5.5,11.5,72,0.00,CLR,,0.11,WeatherDisplay:10.37,2013-11-12 04:57:00,